Time,TemperatureF,DewpointF,PressureIn,WindDirection,WindDirectionDegrees,WindSpeedMPH,WindSpeedGustMPH,Humidity,HourlyPrecipIn,Conditions,Clouds,dailyrainin,SoftwareType,DateUTC
2013-04-26 00:13:00,56.6,46.0,30.23,East,88,0.0,-999.0,67,-99.99,,,0.00,weatherlink.com 1.10,2013-04-26 05:13:00,
2013-04-26 00:28:00,56.5,47.0,30.24,East,88,0.0,-999.0,71,-99.99,,,0.00,weatherlink.com 1.10,2013-04-26 05:28:00,
2013-04-26 00:43:00,56.5,48.0,30.23,East,88,0.0,-999.0,74,-99.99,,,0.00,weatherlink.com 1.10,2013-04-26 05:43:00,
2013-04-26 00:58:00,56.3,48.0,30.24,East,88,0.0,-999.0,75,-99.99,,,0.00,weatherlink.com 1.10,2013-04-26 05:58:00,
2013-04-26 01:13:00,55.9,48.0,30.23,East,88,0.0,-999.0,74,-99.99,,,0.00,weatherlink.com 1.10,2013-04-26 06:13:00,
2013-04-26 01:28:00,55.4,48.0,30.23,East,88,0.0,-999.0,75,-99.99,,,0.00,weatherlink.com 1.10,2013-04-26 06:28:00,
2013-04-26 01:43:00,54.8,47.0,30.23,East,88,0.0,-999.0,76,-99.99,,,0.00,weatherlink.com 1.10,2013-04-26 06:43:00,
2013-04-26 01:58:00,54.2,47.0,30.22,East,88,0.0,-999.0,77,-99.99,,,0.00,weatherlink.com 1.10,2013-04-26 06:58:00,
2013-04-26 02:13:00,53.8,47.0,30.21,East,88,0.0,-999.0,78,-99.99,,,0.00,weatherlink.com 1.10,2013-04-26 07:13:00,
2013-04-26 02:28:00,53.5,48.0,30.20,East,88,0.0,-999.0,80,-99.99,,,0.00,weatherlink.com 1.10,2013-04-26 07:28:00,
2013-04-26 02:43:00,53.2,47.0,30.19,East,88,0.0,-999.0,80,-99.99,,,0.00,weatherlink.com 1.10,2013-04-26 07:43:00,
2013-04-26 02:59:00,53.1,47.0,30.19,East,88,0.0,-999.0,81,-99.99,,,0.00,weatherlink.com 1.10,2013-04-26 07:59:00,
2013-04-26 03:14:00,53.1,48.0,30.19,East,88,0.0,-999.0,83,-99.99,,,0.00,weatherlink.com 1.10,2013-04-26 08:14:00,
2013-04-26 03:29:00,52.9,48.0,30.18,East,88,0.0,-999.0,83,-99.99,,,0.00,weatherlink.com 1.10,2013-04-26 08:29:00,
2013-04-26 03:43:00,52.6,48.0,30.18,East,88,0.0,-999.0,83,-99.99,,,0.00,weatherlink.com 1.10,2013-04-26 08:43:00,
2013-04-26 03:59:00,52.5,48.0,30.18,East,88,0.0,-999.0,83,-99.99,,,0.00,weatherlink.com 1.10,2013-04-26 08:59:00,
2013-04-26 04:14:00,52.3,48.0,30.18,East,88,0.0,-999.0,84,-99.99,,,0.00,weatherlink.com 1.10,2013-04-26 09:14:00,
2013-04-26 04:29:00,52.2,48.0,30.18,East,88,0.0,-999.0,85,-99.99,,,0.00,weatherlink.com 1.10,2013-04-26 09:29:00,
2013-04-26 04:44:00,52.2,48.0,30.18,East,88,0.0,-999.0,86,-99.99,,,0.00,weatherlink.com 1.10,2013-04-26 09:44:00,
2013-04-26 04:59:00,52.2,48.0,30.18,East,88,0.0,-999.0,86,-99.99,,,0.00,weatherlink.com 1.10,2013-04-26 09:59:00,
2013-04-26 05:14:00,51.9,48.0,30.18,East,88,0.0,-999.0,86,-99.99,,,0.00,weatherlink.com 1.10,2013-04-26 10:14:00,
2013-04-26 05:29:00,51.7,48.0,30.19,East,88,0.0,-999.0,86,-99.99,,,0.00,weatherlink.com 1.10,2013-04-26 10:29:00,
2013-04-26 05:44:00,51.6,48.0,30.19,East,88,0.0,-999.0,87,-99.99,,,0.00,weatherlink.com 1.10,2013-04-26 10:44:00,
2013-04-26 05:59:00,51.4,48.0,30.20,East,88,0.0,-999.0,87,-99.99,,,0.00,weatherlink.com 1.10,2013-04-26 10:59:00,
2013-04-26 06:14:00,51.3,48.0,30.20,East,88,0.0,-999.0,88,-99.99,,,0.00,weatherlink.com 1.10,2013-04-26 11:14:00,
2013-04-26 06:29:00,51.6,49.0,30.20,East,88,0.0,-999.0,89,-99.99,,,0.00,weatherlink.com 1.10,2013-04-26 11:29:00,
2013-04-26 06:44:00,51.7,49.0,30.20,East,88,0.0,-999.0,89,-99.99,,,0.00,weatherlink.com 1.10,2013-04-26 11:44:00,
2013-04-26 06:59:00,52.0,49.0,30.21,East,88,0.0,-999.0,90,-99.99,,,0.00,weatherlink.com 1.10,2013-04-26 11:59:00,
2013-04-26 07:14:00,52.8,50.0,30.21,East,88,0.0,-999.0,91,-99.99,,,0.00,weatherlink.com 1.10,2013-04-26 12:14:00,
2013-04-26 07:29:00,53.5,51.0,30.21,East,88,0.0,-999.0,91,-99.99,,,0.00,weatherlink.com 1.10,2013-04-26 12:29:00,
2013-04-26 07:44:00,54.2,52.0,30.22,East,88,0.0,-999.0,91,-99.99,,,0.00,weatherlink.com 1.10,2013-04-26 12:44:00,
2013-04-26 07:59:00,55.9,52.0,30.22,SSE,160,0.0,-999.0,88,-99.99,,,0.00,weatherlink.com 1.10,2013-04-26 12:59:00,
2013-04-26 08:14:00,57.8,52.0,30.22,South,169,1.0,-999.0,82,-99.99,,,0.00,weatherlink.com 1.10,2013-04-26 13:14:00,
2013-04-26 08:29:00,59.8,52.0,30.21,ESE,119,1.0,-999.0,75,-99.99,,,0.00,weatherlink.com 1.10,2013-04-26 13:29:00,
2013-04-26 08:44:00,60.7,52.0,30.21,East,93,0.0,-999.0,72,-99.99,,,0.00,weatherlink.com 1.10,2013-04-26 13:44:00,
2013-04-26 08:59:00,61.6,52.0,30.21,South,175,5.0,-999.0,70,-99.99,,,0.00,weatherlink.com 1.10,2013-04-26 13:59:00,
2013-04-26 09:14:00,62.7,52.0,30.21,SE,145,1.0,-999.0,69,-99.99,,,0.00,weatherlink.com 1.10,2013-04-26 14:14:00,
2013-04-26 09:29:00,64.2,53.0,30.21,SE,134,1.0,-999.0,68,-99.99,,,0.00,weatherlink.com 1.10,2013-04-26 14:29:00,
2013-04-26 09:44:00,64.7,54.0,30.21,SSE,151,2.0,-999.0,68,-99.99,,,0.00,weatherlink.com 1.10,2013-04-26 14:44:00,
2013-04-26 09:59:00,66.0,55.0,30.21,SE,128,3.0,-999.0,67,-99.99,,,0.00,weatherlink.com 1.10,2013-04-26 14:59:00,
2013-04-26 10:14:00,67.1,55.0,30.20,South,172,0.0,-999.0,66,-99.99,,,0.00,weatherlink.com 1.10,2013-04-26 15:14:00,
2013-04-26 10:29:00,67.4,55.0,30.20,South,174,6.0,-999.0,64,-99.99,,,0.00,weatherlink.com 1.10,2013-04-26 15:29:00,
2013-04-26 10:44:00,68.9,57.0,30.20,South,175,3.0,-999.0,65,-99.99,,,0.00,weatherlink.com 1.10,2013-04-26 15:44:00,
2013-04-26 10:59:00,69.1,56.0,30.19,SSE,164,2.0,-999.0,64,-99.99,,,0.00,weatherlink.com 1.10,2013-04-26 15:59:00,
2013-04-26 11:13:00,69.9,57.0,30.19,SSE,150,1.0,-999.0,64,-99.99,,,0.00,weatherlink.com 1.10,2013-04-26 16:13:00,
2013-04-26 11:28:00,70.1,57.0,30.19,SSE,162,3.0,-999.0,64,-99.99,,,0.00,weatherlink.com 1.10,2013-04-26 16:28:00,
2013-04-26 11:44:00,71.5,60.0,30.20,SE,145,1.0,-999.0,67,-99.99,,,0.00,weatherlink.com 1.10,2013-04-26 16:44:00,
2013-04-26 11:59:00,71.8,60.0,30.19,South,182,2.0,-999.0,67,-99.99,,,0.00,weatherlink.com 1.10,2013-04-26 16:59:00,
2013-04-26 12:14:00,73.5,62.0,30.19,SE,141,2.0,-999.0,67,-99.99,,,0.00,weatherlink.com 1.10,2013-04-26 17:14:00,
2013-04-26 12:29:00,73.3,61.0,30.19,SSE,155,1.0,-999.0,66,-99.99,,,0.00,weatherlink.com 1.10,2013-04-26 17:29:00,
2013-04-26 12:44:00,73.9,61.0,30.18,ESE,104,3.0,-999.0,65,-99.99,,,0.00,weatherlink.com 1.10,2013-04-26 17:44:00,
2013-04-26 12:59:00,73.9,61.0,30.18,SW,233,2.0,-999.0,65,-99.99,,,0.00,weatherlink.com 1.10,2013-04-26 17:59:00,
2013-04-26 13:14:00,74.0,62.0,30.18,ENE,69,1.0,-999.0,67,-99.99,,,0.00,weatherlink.com 1.10,2013-04-26 18:14:00,
2013-04-26 13:29:00,74.2,63.0,30.17,South,181,1.0,-999.0,67,-99.99,,,0.00,weatherlink.com 1.10,2013-04-26 18:29:00,
2013-04-26 13:44:00,75.1,64.0,30.17,South,176,0.0,-999.0,69,-99.99,,,0.00,weatherlink.com 1.10,2013-04-26 18:44:00,
2013-04-26 13:59:00,75.8,64.0,30.16,South,181,3.0,-999.0,67,-99.99,,,0.00,weatherlink.com 1.10,2013-04-26 18:59:00,
2013-04-26 14:14:00,76.3,65.0,30.16,SSE,151,0.0,-999.0,67,-99.99,,,0.00,weatherlink.com 1.10,2013-04-26 19:14:00,
2013-04-26 14:29:00,76.3,65.0,30.15,SW,215,0.0,-999.0,68,-99.99,,,0.00,weatherlink.com 1.10,2013-04-26 19:29:00,
2013-04-26 14:44:00,76.1,65.0,30.14,ESE,103,2.0,-999.0,68,-99.99,,,0.00,weatherlink.com 1.10,2013-04-26 19:44:00,
2013-04-26 14:59:00,76.0,65.0,30.14,SSE,165,0.0,-999.0,68,-99.99,,,0.00,weatherlink.com 1.10,2013-04-26 19:59:00,
2013-04-26 15:14:00,76.0,65.0,30.13,SSE,167,0.0,-999.0,68,-99.99,,,0.00,weatherlink.com 1.10,2013-04-26 20:14:00,
2013-04-26 15:29:00,76.0,65.0,30.13,SSE,158,1.0,-999.0,68,-99.99,,,0.00,weatherlink.com 1.10,2013-04-26 20:29:00,
2013-04-26 15:44:00,76.0,65.0,30.12,East,97,0.0,-999.0,69,-99.99,,,0.00,weatherlink.com 1.10,2013-04-26 20:44:00,
2013-04-26 15:59:00,76.0,66.0,30.12,SSE,162,0.0,-999.0,70,-99.99,,,0.00,weatherlink.com 1.10,2013-04-26 20:59:00,
2013-04-26 16:14:00,77.4,66.0,30.12,South,182,2.0,-999.0,67,-99.99,,,0.00,weatherlink.com 1.10,2013-04-26 21:14:00,
2013-04-26 16:29:00,76.3,65.0,30.11,South,176,0.0,-999.0,69,-99.99,,,0.00,weatherlink.com 1.10,2013-04-26 21:29:00,
2013-04-26 16:44:00,77.0,66.0,30.10,SSW,199,2.0,-999.0,68,-99.99,,,0.00,weatherlink.com 1.10,2013-04-26 21:44:00,
2013-04-26 16:59:00,76.8,65.0,30.10,SSW,202,0.0,-999.0,68,-99.99,,,0.00,weatherlink.com 1.10,2013-04-26 21:59:00,
2013-04-26 17:14:00,76.8,65.0,30.10,SSW,192,0.0,-999.0,68,-99.99,,,0.00,weatherlink.com 1.10,2013-04-26 22:14:00,
2013-04-26 17:29:00,77.2,66.0,30.10,WSW,247,2.0,-999.0,69,-99.99,,,0.00,weatherlink.com 1.10,2013-04-26 22:29:00,
2013-04-26 17:44:00,77.0,66.0,30.10,SSW,199,0.0,-999.0,69,-99.99,,,0.00,weatherlink.com 1.10,2013-04-26 22:44:00,
2013-04-26 17:59:00,76.5,66.0,30.10,SSW,200,5.0,-999.0,70,-99.99,,,0.00,weatherlink.com 1.10,2013-04-26 22:59:00,
2013-04-26 18:14:00,76.1,66.0,30.10,SW,226,0.0,-999.0,70,-99.99,,,0.00,weatherlink.com 1.10,2013-04-26 23:14:00,
2013-04-26 18:29:00,76.1,66.0,30.10,South,176,0.0,-999.0,70,-99.99,,,0.00,weatherlink.com 1.10,2013-04-26 23:29:00,
2013-04-26 18:44:00,75.8,65.0,30.10,SSE,158,1.0,-999.0,70,-99.99,,,0.00,weatherlink.com 1.10,2013-04-26 23:44:00,
2013-04-26 19:14:00,75.4,65.0,30.09,SSE,160,1.0,-999.0,71,-99.99,,,0.00,weatherlink.com 1.10,2013-04-27 00:14:00,
2013-04-26 19:29:00,75.1,66.0,30.09,South,181,0.0,-999.0,72,-99.99,,,0.00,weatherlink.com 1.10,2013-04-27 00:29:00,
2013-04-26 19:44:00,74.9,65.0,30.10,South,181,0.0,-999.0,72,-99.99,,,0.00,weatherlink.com 1.10,2013-04-27 00:44:00,
2013-04-26 19:59:00,74.6,65.0,30.10,South,181,0.0,-999.0,73,-99.99,,,0.00,weatherlink.com 1.10,2013-04-27 00:59:00,
2013-04-26 20:14:00,74.2,65.0,30.10,South,181,0.0,-999.0,74,-99.99,,,0.00,weatherlink.com 1.10,2013-04-27 01:14:00,
2013-04-26 20:28:00,73.9,66.0,30.10,SSE,168,0.0,-999.0,75,-99.99,,,0.00,weatherlink.com 1.10,2013-04-27 01:28:00,
2013-04-26 20:44:00,73.5,66.0,30.11,SSE,168,0.0,-999.0,76,-99.99,,,0.00,weatherlink.com 1.10,2013-04-27 01:44:00,
2013-04-26 20:58:00,73.3,66.0,30.11,SSE,168,0.0,-999.0,77,-99.99,,,0.00,weatherlink.com 1.10,2013-04-27 01:58:00,
2013-04-26 21:14:00,73.0,66.0,30.11,SSE,168,0.0,-999.0,78,-99.99,,,0.00,weatherlink.com 1.10,2013-04-27 02:14:00,
2013-04-26 21:28:00,72.8,66.0,30.11,SSE,158,0.0,-999.0,79,-99.99,,,0.00,weatherlink.com 1.10,2013-04-27 02:28:00,
2013-04-26 21:43:00,72.7,66.0,30.10,SSE,152,2.0,-999.0,80,-99.99,,,0.00,weatherlink.com 1.10,2013-04-27 02:43:00,
2013-04-26 21:59:00,72.3,66.0,30.11,SSE,164,1.0,-999.0,80,-99.99,,,0.00,weatherlink.com 1.10,2013-04-27 02:59:00,
2013-04-26 22:14:00,72.1,66.0,30.10,SSE,164,1.0,-999.0,82,-99.99,,,0.00,weatherlink.com 1.10,2013-04-27 03:14:00,
2013-04-26 22:28:00,72.0,67.0,30.10,SSE,161,0.0,-999.0,83,-99.99,,,0.00,weatherlink.com 1.10,2013-04-27 03:28:00,
2013-04-26 22:44:00,71.6,66.0,30.10,SSE,165,0.0,-999.0,83,-99.99,,,0.00,weatherlink.com 1.10,2013-04-27 03:44:00,
2013-04-26 22:58:00,71.3,66.0,30.10,South,184,0.0,-999.0,84,-99.99,,,0.00,weatherlink.com 1.10,2013-04-27 03:58:00,
2013-04-26 23:13:00,70.9,66.0,30.09,South,175,0.0,-999.0,85,-99.99,,,0.00,weatherlink.com 1.10,2013-04-27 04:13:00,
2013-04-26 23:28:00,70.8,67.0,30.07,South,176,2.0,-999.0,86,-99.99,,,0.00,weatherlink.com 1.10,2013-04-27 04:28:00,
2013-04-26 23:43:00,70.4,66.0,30.06,SE,138,3.0,-999.0,87,-99.99,,,0.00,weatherlink.com 1.10,2013-04-27 04:43:00,
2013-04-26 23:58:00,70.4,66.0,30.07,SSE,165,2.0,-999.0,87,-99.99,,,0.00,weatherlink.com 1.10,2013-04-27 04:58:00,